sensor_id;sensor_type;location;lat;lon;timestamp;P1;durP1;ratioP1;P2;durP2;ratioP2
47103;SDS011;32853;52.164;5.400;2023-03-24T00:01:35;5.40;;;1.63;;
47103;SDS011;32853;52.164;5.400;2023-03-24T00:04:17;8.15;;;2.30;;
47103;SDS011;32853;52.164;5.400;2023-03-24T00:06:45;6.75;;;1.92;;
47103;SDS011;32853;52.164;5.400;2023-03-24T00:09:13;7.57;;;2.13;;
47103;SDS011;32853;52.164;5.400;2023-03-24T00:11:39;6.32;;;2.20;;
47103;SDS011;32853;52.164;5.400;2023-03-24T00:14:11;3.07;;;1.60;;
47103;SDS011;32853;52.164;5.400;2023-03-24T00:16:37;7.25;;;2.08;;
47103;SDS011;32853;52.164;5.400;2023-03-24T00:19:10;5.20;;;2.17;;
47103;SDS011;32853;52.164;5.400;2023-03-24T00:21:40;4.47;;;1.40;;
47103;SDS011;32853;52.164;5.400;2023-03-24T00:24:06;5.03;;;1.80;;
47103;SDS011;32853;52.164;5.400;2023-03-24T00:26:32;4.13;;;1.40;;
47103;SDS011;32853;52.164;5.400;2023-03-24T00:29:06;6.18;;;1.75;;
47103;SDS011;32853;52.164;5.400;2023-03-24T00:31:35;5.97;;;1.92;;
47103;SDS011;32853;52.164;5.400;2023-03-24T00:34:03;6.55;;;2.22;;
47103;SDS011;32853;52.164;5.400;2023-03-24T00:36:30;5.40;;;2.03;;
47103;SDS011;32853;52.164;5.400;2023-03-24T00:38:56;2.95;;;1.30;;
47103;SDS011;32853;52.164;5.400;2023-03-24T00:41:22;8.65;;;2.03;;
47103;SDS011;32853;52.164;5.400;2023-03-24T00:43:49;2.80;;;1.63;;
47103;SDS011;32853;52.164;5.400;2023-03-24T00:46:15;3.53;;;1.15;;
47103;SDS011;32853;52.164;5.400;2023-03-24T00:49:03;3.47;;;1.40;;
47103;SDS011;32853;52.164;5.400;2023-03-24T00:51:32;6.63;;;1.45;;
47103;SDS011;32853;52.164;5.400;2023-03-24T00:54:02;6.93;;;1.40;;
47103;SDS011;32853;52.164;5.400;2023-03-24T00:56:29;6.00;;;2.20;;
47103;SDS011;32853;52.164;5.400;2023-03-24T00:58:56;7.35;;;2.08;;
47103;SDS011;32853;52.164;5.400;2023-03-24T01:01:24;3.72;;;1.83;;
47103;SDS011;32853;52.164;5.400;2023-03-24T01:03:51;5.80;;;1.52;;
47103;SDS011;32853;52.164;5.400;2023-03-24T01:06:17;6.35;;;1.80;;
47103;SDS011;32853;52.164;5.400;2023-03-24T01:08:50;4.15;;;1.60;;
47103;SDS011;32853;52.164;5.400;2023-03-24T01:11:20;5.85;;;1.77;;
47103;SDS011;32853;52.164;5.400;2023-03-24T01:13:47;4.65;;;1.60;;
47103;SDS011;32853;52.164;5.400;2023-03-24T01:16:17;5.65;;;1.80;;
47103;SDS011;32853;52.164;5.400;2023-03-24T01:18:50;6.82;;;1.67;;
47103;SDS011;32853;52.164;5.400;2023-03-24T01:21:16;5.03;;;1.75;;
47103;SDS011;32853;52.164;5.400;2023-03-24T01:23:42;5.90;;;1.67;;
47103;SDS011;32853;52.164;5.400;2023-03-24T01:26:21;5.50;;;1.60;;
47103;SDS011;32853;52.164;5.400;2023-03-24T01:28:48;3.35;;;1.40;;
47103;SDS011;32853;52.164;5.400;2023-03-24T01:31:14;4.03;;;1.55;;
47103;SDS011;32853;52.164;5.400;2023-03-24T01:33:43;4.47;;;1.50;;
47103;SDS011;32853;52.164;5.400;2023-03-24T01:36:11;5.10;;;1.70;;
47103;SDS011;32853;52.164;5.400;2023-03-24T01:38:37;4.45;;;1.63;;
47103;SDS011;32853;52.164;5.400;2023-03-24T01:41:12;6.75;;;1.38;;
47103;SDS011;32853;52.164;5.400;2023-03-24T01:43:54;4.50;;;1.40;;
47103;SDS011;32853;52.164;5.400;2023-03-24T01:46:27;6.95;;;1.58;;
47103;SDS011;32853;52.164;5.400;2023-03-24T01:49:03;4.57;;;1.50;;
47103;SDS011;32853;52.164;5.400;2023-03-24T01:51:33;4.10;;;1.67;;
47103;SDS011;32853;52.164;5.400;2023-03-24T01:54:45;4.78;;;1.60;;
47103;SDS011;32853;52.164;5.400;2023-03-24T01:57:30;4.20;;;1.80;;
47103;SDS011;32853;52.164;5.400;2023-03-24T02:00:02;5.15;;;1.80;;
47103;SDS011;32853;52.164;5.400;2023-03-24T02:02:33;5.90;;;2.28;;
47103;SDS011;32853;52.164;5.400;2023-03-24T02:05:01;4.15;;;1.60;;
47103;SDS011;32853;52.164;5.400;2023-03-24T02:10:19;4.20;;;1.73;;
47103;SDS011;32853;52.164;5.400;2023-03-24T02:39:07;2.15;;;1.10;;
47103;SDS011;32853;52.164;5.400;2023-03-24T02:44:41;2.30;;;0.93;;
47103;SDS011;32853;52.164;5.400;2023-03-24T02:47:22;3.38;;;0.77;;
47103;SDS011;32853;52.164;5.400;2023-03-24T02:56:12;1.95;;;0.68;;
47103;SDS011;32853;52.164;5.400;2023-03-24T02:58:48;4.00;;;0.60;;
47103;SDS011;32853;52.164;5.400;2023-03-24T03:01:19;2.33;;;0.47;;
47103;SDS011;32853;52.164;5.400;2023-03-24T03:03:57;1.63;;;0.50;;
47103;SDS011;32853;52.164;5.400;2023-03-24T03:06:27;4.30;;;0.73;;
47103;SDS011;32853;52.164;5.400;2023-03-24T03:08:56;4.72;;;1.05;;
47103;SDS011;32853;52.164;5.400;2023-03-24T03:11:25;3.57;;;0.60;;
47103;SDS011;32853;52.164;5.400;2023-03-24T03:13:58;3.17;;;0.60;;
47103;SDS011;32853;52.164;5.400;2023-03-24T03:16:34;4.20;;;0.70;;
47103;SDS011;32853;52.164;5.400;2023-03-24T03:19:13;2.97;;;0.45;;
47103;SDS011;32853;52.164;5.400;2023-03-24T03:21:49;4.35;;;0.75;;
47103;SDS011;32853;52.164;5.400;2023-03-24T03:24:19;5.40;;;0.63;;
47103;SDS011;32853;52.164;5.400;2023-03-24T03:29:44;2.83;;;0.82;;
47103;SDS011;32853;52.164;5.400;2023-03-24T03:32:16;7.68;;;1.88;;
47103;SDS011;32853;52.164;5.400;2023-03-24T03:43:29;4.37;;;0.87;;
47103;SDS011;32853;52.164;5.400;2023-03-24T03:46:02;8.32;;;1.00;;
47103;SDS011;32853;52.164;5.400;2023-03-24T03:48:37;8.80;;;1.02;;
47103;SDS011;32853;52.164;5.400;2023-03-24T03:51:10;10.63;;;1.20;;
47103;SDS011;32853;52.164;5.400;2023-03-24T03:59:06;8.10;;;1.00;;
47103;SDS011;32853;52.164;5.400;2023-03-24T04:01:33;8.85;;;1.13;;
47103;SDS011;32853;52.164;5.400;2023-03-24T04:12:48;10.10;;;1.07;;
47103;SDS011;32853;52.164;5.400;2023-03-24T04:17:53;5.03;;;1.00;;
47103;SDS011;32853;52.164;5.400;2023-03-24T04:20:25;8.30;;;1.27;;
47103;SDS011;32853;52.164;5.400;2023-03-24T04:23:04;5.50;;;0.90;;
47103;SDS011;32853;52.164;5.400;2023-03-24T04:25:47;6.70;;;1.20;;
47103;SDS011;32853;52.164;5.400;2023-03-24T04:36:57;8.48;;;1.23;;
47103;SDS011;32853;52.164;5.400;2023-03-24T04:39:30;9.27;;;1.73;;
47103;SDS011;32853;52.164;5.400;2023-03-24T04:42:04;7.85;;;1.38;;
47103;SDS011;32853;52.164;5.400;2023-03-24T04:44:34;7.13;;;0.82;;
47103;SDS011;32853;52.164;5.400;2023-03-24T04:47:00;8.70;;;1.10;;
47103;SDS011;32853;52.164;5.400;2023-03-24T04:49:27;12.43;;;1.67;;
47103;SDS011;32853;52.164;5.400;2023-03-24T04:51:52;10.30;;;1.30;;
47103;SDS011;32853;52.164;5.400;2023-03-24T04:54:19;9.52;;;1.42;;
47103;SDS011;32853;52.164;5.400;2023-03-24T04:56:47;10.77;;;1.65;;
47103;SDS011;32853;52.164;5.400;2023-03-24T04:59:17;11.25;;;1.30;;
47103;SDS011;32853;52.164;5.400;2023-03-24T05:01:43;12.90;;;2.07;;
47103;SDS011;32853;52.164;5.400;2023-03-24T05:04:18;13.00;;;1.92;;
47103;SDS011;32853;52.164;5.400;2023-03-24T05:06:48;14.07;;;1.23;;
47103;SDS011;32853;52.164;5.400;2023-03-24T05:09:31;11.48;;;1.35;;
47103;SDS011;32853;52.164;5.400;2023-03-24T05:11:57;18.67;;;1.98;;
47103;SDS011;32853;52.164;5.400;2023-03-24T05:14:22;14.13;;;1.70;;
47103;SDS011;32853;52.164;5.400;2023-03-24T05:19:39;17.20;;;2.33;;
47103;SDS011;32853;52.164;5.400;2023-03-24T05:22:04;20.55;;;1.55;;
47103;SDS011;32853;52.164;5.400;2023-03-24T05:24:30;16.48;;;1.52;;
47103;SDS011;32853;52.164;5.400;2023-03-24T05:27:09;17.90;;;2.07;;
47103;SDS011;32853;52.164;5.400;2023-03-24T05:29:35;8.60;;;1.25;;
47103;SDS011;32853;52.164;5.400;2023-03-24T05:32:00;17.00;;;1.77;;
47103;SDS011;32853;52.164;5.400;2023-03-24T05:34:28;17.85;;;1.95;;
47103;SDS011;32853;52.164;5.400;2023-03-24T05:36:59;15.48;;;2.22;;
47103;SDS011;32853;52.164;5.400;2023-03-24T05:39:24;16.02;;;1.73;;
47103;SDS011;32853;52.164;5.400;2023-03-24T05:41:52;24.10;;;2.87;;
47103;SDS011;32853;52.164;5.400;2023-03-24T05:44:17;20.02;;;3.60;;
47103;SDS011;32853;52.164;5.400;2023-03-24T05:46:49;18.70;;;1.73;;
47103;SDS011;32853;52.164;5.400;2023-03-24T05:49:19;13.70;;;2.20;;
47103;SDS011;32853;52.164;5.400;2023-03-24T05:52:00;16.75;;;1.90;;
47103;SDS011;32853;52.164;5.400;2023-03-24T05:54:26;19.77;;;2.22;;
47103;SDS011;32853;52.164;5.400;2023-03-24T05:57:01;16.33;;;1.87;;
47103;SDS011;32853;52.164;5.400;2023-03-24T05:59:44;18.73;;;2.90;;
47103;SDS011;32853;52.164;5.400;2023-03-24T06:02:10;18.35;;;1.80;;
47103;SDS011;32853;52.164;5.400;2023-03-24T06:04:35;20.67;;;3.22;;
47103;SDS011;32853;52.164;5.400;2023-03-24T06:07:16;24.00;;;2.45;;
47103;SDS011;32853;52.164;5.400;2023-03-24T06:09:44;16.52;;;2.20;;
47103;SDS011;32853;52.164;5.400;2023-03-24T06:12:17;22.30;;;2.70;;
47103;SDS011;32853;52.164;5.400;2023-03-24T06:14:42;17.08;;;2.22;;
47103;SDS011;32853;52.164;5.400;2023-03-24T06:17:11;15.07;;;1.75;;
47103;SDS011;32853;52.164;5.400;2023-03-24T06:19:58;24.37;;;3.03;;
47103;SDS011;32853;52.164;5.400;2023-03-24T06:22:34;20.25;;;2.28;;
47103;SDS011;32853;52.164;5.400;2023-03-24T06:25:14;18.27;;;1.98;;
47103;SDS011;32853;52.164;5.400;2023-03-24T06:27:41;18.60;;;2.15;;
47103;SDS011;32853;52.164;5.400;2023-03-24T06:30:10;18.65;;;1.85;;
47103;SDS011;32853;52.164;5.400;2023-03-24T06:32:37;19.15;;;2.63;;
47103;SDS011;32853;52.164;5.400;2023-03-24T06:35:03;21.27;;;2.63;;
47103;SDS011;32853;52.164;5.400;2023-03-24T06:37:29;14.33;;;2.47;;
47103;SDS011;32853;52.164;5.400;2023-03-24T06:39:54;22.13;;;1.93;;
47103;SDS011;32853;52.164;5.400;2023-03-24T06:42:19;19.63;;;2.80;;
47103;SDS011;32853;52.164;5.400;2023-03-24T06:44:46;17.40;;;2.33;;
47103;SDS011;32853;52.164;5.400;2023-03-24T06:47:11;21.57;;;2.47;;
47103;SDS011;32853;52.164;5.400;2023-03-24T06:49:49;10.87;;;1.67;;
47103;SDS011;32853;52.164;5.400;2023-03-24T06:52:21;20.95;;;2.70;;
47103;SDS011;32853;52.164;5.400;2023-03-24T06:54:48;18.00;;;2.53;;
47103;SDS011;32853;52.164;5.400;2023-03-24T06:57:20;15.03;;;2.50;;
47103;SDS011;32853;52.164;5.400;2023-03-24T06:59:54;15.82;;;2.20;;
47103;SDS011;32853;52.164;5.400;2023-03-24T07:02:19;13.90;;;1.90;;
47103;SDS011;32853;52.164;5.400;2023-03-24T07:04:54;21.33;;;2.28;;
47103;SDS011;32853;52.164;5.400;2023-03-24T07:07:20;18.80;;;2.28;;
47103;SDS011;32853;52.164;5.400;2023-03-24T07:09:46;15.88;;;1.80;;
47103;SDS011;32853;52.164;5.400;2023-03-24T07:12:12;15.67;;;2.57;;
47103;SDS011;32853;52.164;5.400;2023-03-24T07:14:37;15.97;;;2.70;;
47103;SDS011;32853;52.164;5.400;2023-03-24T07:19:34;20.75;;;2.78;;
47103;SDS011;32853;52.164;5.400;2023-03-24T07:21:59;16.87;;;2.10;;
47103;SDS011;32853;52.164;5.400;2023-03-24T07:24:32;15.47;;;2.47;;
47103;SDS011;32853;52.164;5.400;2023-03-24T07:26:59;17.50;;;2.13;;
47103;SDS011;32853;52.164;5.400;2023-03-24T07:29:33;13.67;;;2.00;;
47103;SDS011;32853;52.164;5.400;2023-03-24T07:31:58;16.23;;;2.20;;
47103;SDS011;32853;52.164;5.400;2023-03-24T07:34:33;21.27;;;2.35;;
47103;SDS011;32853;52.164;5.400;2023-03-24T07:37:11;14.57;;;2.10;;
47103;SDS011;32853;52.164;5.400;2023-03-24T07:39:36;14.55;;;2.35;;
47103;SDS011;32853;52.164;5.400;2023-03-24T07:42:02;9.85;;;1.83;;
47103;SDS011;32853;52.164;5.400;2023-03-24T07:44:27;14.63;;;2.60;;
47103;SDS011;32853;52.164;5.400;2023-03-24T07:46:52;16.38;;;2.38;;
47103;SDS011;32853;52.164;5.400;2023-03-24T07:49:19;24.83;;;3.58;;
47103;SDS011;32853;52.164;5.400;2023-03-24T07:51:44;13.13;;;2.05;;
47103;SDS011;32853;52.164;5.400;2023-03-24T07:54:10;14.43;;;2.00;;
47103;SDS011;32853;52.164;5.400;2023-03-24T07:56:35;13.40;;;2.70;;
47103;SDS011;32853;52.164;5.400;2023-03-24T07:59:09;16.53;;;1.70;;
47103;SDS011;32853;52.164;5.400;2023-03-24T08:01:35;12.10;;;2.03;;
47103;SDS011;32853;52.164;5.400;2023-03-24T08:04:04;18.83;;;2.17;;
47103;SDS011;32853;52.164;5.400;2023-03-24T08:06:32;10.70;;;1.92;;
47103;SDS011;32853;52.164;5.400;2023-03-24T08:08:58;9.60;;;1.90;;
47103;SDS011;32853;52.164;5.400;2023-03-24T08:11:23;20.07;;;2.30;;
47103;SDS011;32853;52.164;5.400;2023-03-24T08:13:49;11.17;;;2.23;;
47103;SDS011;32853;52.164;5.400;2023-03-24T08:16:14;14.40;;;2.27;;
47103;SDS011;32853;52.164;5.400;2023-03-24T08:18:40;10.73;;;1.70;;
47103;SDS011;32853;52.164;5.400;2023-03-24T08:21:05;15.20;;;1.53;;
47103;SDS011;32853;52.164;5.400;2023-03-24T08:23:30;15.50;;;1.90;;
47103;SDS011;32853;52.164;5.400;2023-03-24T08:26:05;16.60;;;2.20;;
47103;SDS011;32853;52.164;5.400;2023-03-24T08:28:33;14.13;;;2.50;;
47103;SDS011;32853;52.164;5.400;2023-03-24T08:30:58;13.95;;;1.65;;
47103;SDS011;32853;52.164;5.400;2023-03-24T08:33:23;13.83;;;2.70;;
47103;SDS011;32853;52.164;5.400;2023-03-24T08:35:49;12.07;;;2.00;;
47103;SDS011;32853;52.164;5.400;2023-03-24T08:38:15;13.63;;;1.95;;
47103;SDS011;32853;52.164;5.400;2023-03-24T08:40:41;13.73;;;1.87;;
47103;SDS011;32853;52.164;5.400;2023-03-24T08:43:08;15.70;;;1.77;;
47103;SDS011;32853;52.164;5.400;2023-03-24T08:45:38;12.45;;;1.88;;
47103;SDS011;32853;52.164;5.400;2023-03-24T08:48:04;10.00;;;1.50;;
47103;SDS011;32853;52.164;5.400;2023-03-24T08:50:32;13.47;;;2.27;;
47103;SDS011;32853;52.164;5.400;2023-03-24T08:52:59;19.00;;;3.30;;
47103;SDS011;32853;52.164;5.400;2023-03-24T08:55:25;15.43;;;1.60;;
47103;SDS011;32853;52.164;5.400;2023-03-24T08:57:51;15.97;;;4.03;;
47103;SDS011;32853;52.164;5.400;2023-03-24T09:00:17;14.98;;;2.00;;
47103;SDS011;32853;52.164;5.400;2023-03-24T09:02:45;18.45;;;2.20;;
47103;SDS011;32853;52.164;5.400;2023-03-24T09:05:13;20.38;;;2.83;;
47103;SDS011;32853;52.164;5.400;2023-03-24T09:07:41;13.98;;;1.98;;
47103;SDS011;32853;52.164;5.400;2023-03-24T09:10:07;9.77;;;1.90;;
47103;SDS011;32853;52.164;5.400;2023-03-24T09:12:34;17.02;;;2.33;;
47103;SDS011;32853;52.164;5.400;2023-03-24T09:15:01;12.80;;;1.70;;
47103;SDS011;32853;52.164;5.400;2023-03-24T09:17:26;14.37;;;2.57;;
47103;SDS011;32853;52.164;5.400;2023-03-24T09:19:52;12.17;;;2.17;;
47103;SDS011;32853;52.164;5.400;2023-03-24T09:22:17;13.93;;;1.97;;
47103;SDS011;32853;52.164;5.400;2023-03-24T09:24:45;17.80;;;2.33;;
47103;SDS011;32853;52.164;5.400;2023-03-24T09:27:15;10.57;;;2.80;;
47103;SDS011;32853;52.164;5.400;2023-03-24T09:29:48;9.38;;;1.27;;
47103;SDS011;32853;52.164;5.400;2023-03-24T09:32:14;11.00;;;2.90;;
47103;SDS011;32853;52.164;5.400;2023-03-24T09:34:42;11.33;;;1.53;;
47103;SDS011;32853;52.164;5.400;2023-03-24T09:37:10;17.17;;;3.10;;
47103;SDS011;32853;52.164;5.400;2023-03-24T09:39:39;13.70;;;1.67;;
47103;SDS011;32853;52.164;5.400;2023-03-24T09:42:06;13.52;;;1.52;;
47103;SDS011;32853;52.164;5.400;2023-03-24T09:44:42;14.80;;;2.17;;
47103;SDS011;32853;52.164;5.400;2023-03-24T09:47:30;12.38;;;2.25;;
47103;SDS011;32853;52.164;5.400;2023-03-24T09:50:02;15.48;;;1.50;;
47103;SDS011;32853;52.164;5.400;2023-03-24T09:52:35;10.48;;;2.10;;
47103;SDS011;32853;52.164;5.400;2023-03-24T09:55:07;11.47;;;1.37;;
47103;SDS011;32853;52.164;5.400;2023-03-24T09:57:39;12.40;;;2.10;;
47103;SDS011;32853;52.164;5.400;2023-03-24T10:00:11;11.75;;;2.42;;
47103;SDS011;32853;52.164;5.400;2023-03-24T10:02:50;12.77;;;1.58;;
47103;SDS011;32853;52.164;5.400;2023-03-24T10:05:40;14.07;;;2.42;;
47103;SDS011;32853;52.164;5.400;2023-03-24T10:11:03;12.27;;;1.38;;
47103;SDS011;32853;52.164;5.400;2023-03-24T10:14:21;12.35;;;1.63;;
47103;SDS011;32853;52.164;5.400;2023-03-24T10:16:49;11.98;;;2.30;;
47103;SDS011;32853;52.164;5.400;2023-03-24T10:19:47;7.77;;;1.30;;
47103;SDS011;32853;52.164;5.400;2023-03-24T10:31:16;14.57;;;2.00;;
47103;SDS011;32853;52.164;5.400;2023-03-24T10:33:49;12.05;;;1.83;;
47103;SDS011;32853;52.164;5.400;2023-03-24T10:36:17;14.40;;;1.38;;
47103;SDS011;32853;52.164;5.400;2023-03-24T10:38:45;9.30;;;1.50;;
47103;SDS011;32853;52.164;5.400;2023-03-24T10:41:23;9.18;;;1.35;;
47103;SDS011;32853;52.164;5.400;2023-03-24T10:46:33;8.55;;;1.10;;
47103;SDS011;32853;52.164;5.400;2023-03-24T10:51:51;15.30;;;1.50;;
47103;SDS011;32853;52.164;5.400;2023-03-24T10:56:51;9.25;;;1.50;;
47103;SDS011;32853;52.164;5.400;2023-03-24T11:04:26;7.85;;;1.17;;
47103;SDS011;32853;52.164;5.400;2023-03-24T11:07:02;11.13;;;1.80;;
47103;SDS011;32853;52.164;5.400;2023-03-24T11:10:31;11.95;;;1.55;;
47103;SDS011;32853;52.164;5.400;2023-03-24T11:12:42;10.88;;;1.60;;
47103;SDS011;32853;52.164;5.400;2023-03-24T11:15:27;11.13;;;1.38;;
47103;SDS011;32853;52.164;5.400;2023-03-24T11:23:28;9.98;;;2.17;;
47103;SDS011;32853;52.164;5.400;2023-03-24T11:28:50;13.57;;;1.95;;
47103;SDS011;32853;52.164;5.400;2023-03-24T11:31:26;8.10;;;1.30;;
47103;SDS011;32853;52.164;5.400;2023-03-24T11:36:43;9.07;;;1.40;;
47103;SDS011;32853;52.164;5.400;2023-03-24T11:52:49;11.05;;;1.60;;
47103;SDS011;32853;52.164;5.400;2023-03-24T11:55:26;10.27;;;1.20;;
47103;SDS011;32853;52.164;5.400;2023-03-24T12:09:31;7.88;;;1.20;;
47103;SDS011;32853;52.164;5.400;2023-03-24T12:12:28;5.30;;;1.23;;
47103;SDS011;32853;52.164;5.400;2023-03-24T12:20:44;9.10;;;0.98;;
47103;SDS011;32853;52.164;5.400;2023-03-24T12:26:11;7.00;;;1.23;;
47103;SDS011;32853;52.164;5.400;2023-03-24T12:29:32;7.38;;;1.50;;
47103;SDS011;32853;52.164;5.400;2023-03-24T12:37:27;5.73;;;0.70;;
47103;SDS011;32853;52.164;5.400;2023-03-24T12:43:45;7.32;;;0.80;;
47103;SDS011;32853;52.164;5.400;2023-03-24T12:45:55;6.38;;;0.98;;
47103;SDS011;32853;52.164;5.400;2023-03-24T12:48:34;4.82;;;0.75;;
47103;SDS011;32853;52.164;5.400;2023-03-24T12:51:18;8.32;;;1.00;;
47103;SDS011;32853;52.164;5.400;2023-03-24T12:56:46;7.63;;;1.35;;
47103;SDS011;32853;52.164;5.400;2023-03-24T13:01:58;11.95;;;1.05;;
47103;SDS011;32853;52.164;5.400;2023-03-24T13:04:33;10.40;;;1.30;;
47103;SDS011;32853;52.164;5.400;2023-03-24T13:07:17;7.68;;;0.77;;
47103;SDS011;32853;52.164;5.400;2023-03-24T13:12:34;5.82;;;0.80;;
47103;SDS011;32853;52.164;5.400;2023-03-24T13:15:06;8.63;;;0.80;;
47103;SDS011;32853;52.164;5.400;2023-03-24T13:37:24;5.97;;;1.08;;
47103;SDS011;32853;52.164;5.400;2023-03-24T13:39:55;9.25;;;1.13;;
47103;SDS011;32853;52.164;5.400;2023-03-24T13:42:40;14.30;;;1.50;;
47103;SDS011;32853;52.164;5.400;2023-03-24T13:48:30;11.57;;;1.73;;
47103;SDS011;32853;52.164;5.400;2023-03-24T13:54:08;8.68;;;1.13;;
47103;SDS011;32853;52.164;5.400;2023-03-24T13:56:51;10.07;;;1.20;;
47103;SDS011;32853;52.164;5.400;2023-03-24T14:05:09;11.57;;;0.98;;
47103;SDS011;32853;52.164;5.400;2023-03-24T14:23:22;4.30;;;0.75;;
47103;SDS011;32853;52.164;5.400;2023-03-24T14:25:58;10.05;;;1.70;;
47103;SDS011;32853;52.164;5.400;2023-03-24T14:28:27;8.73;;;0.77;;
47103;SDS011;32853;52.164;5.400;2023-03-24T14:34:01;6.40;;;0.93;;
47103;SDS011;32853;52.164;5.400;2023-03-24T14:36:35;5.63;;;1.00;;
47103;SDS011;32853;52.164;5.400;2023-03-24T14:41:50;6.03;;;0.90;;
47103;SDS011;32853;52.164;5.400;2023-03-24T14:47:21;6.85;;;0.70;;
47103;SDS011;32853;52.164;5.400;2023-03-24T14:49:50;4.93;;;0.85;;
47103;SDS011;32853;52.164;5.400;2023-03-24T14:55:14;6.47;;;1.00;;
47103;SDS011;32853;52.164;5.400;2023-03-24T14:57:52;9.20;;;0.80;;
47103;SDS011;32853;52.164;5.400;2023-03-24T15:06:31;7.70;;;0.85;;
47103;SDS011;32853;52.164;5.400;2023-03-24T15:11:40;7.00;;;1.10;;
47103;SDS011;32853;52.164;5.400;2023-03-24T15:14:22;6.40;;;0.77;;
47103;SDS011;32853;52.164;5.400;2023-03-24T15:19:42;6.72;;;1.63;;
47103;SDS011;32853;52.164;5.400;2023-03-24T15:22:10;9.63;;;1.15;;
47103;SDS011;32853;52.164;5.400;2023-03-24T15:27:49;8.52;;;0.80;;
47103;SDS011;32853;52.164;5.400;2023-03-24T15:30:15;11.83;;;0.90;;
47103;SDS011;32853;52.164;5.400;2023-03-24T15:32:44;4.13;;;0.70;;
47103;SDS011;32853;52.164;5.400;2023-03-24T15:35:23;3.42;;;0.65;;
47103;SDS011;32853;52.164;5.400;2023-03-24T15:37:54;8.25;;;1.00;;
47103;SDS011;32853;52.164;5.400;2023-03-24T15:40:33;10.40;;;1.13;;
47103;SDS011;32853;52.164;5.400;2023-03-24T15:43:15;18.25;;;1.38;;
47103;SDS011;32853;52.164;5.400;2023-03-24T15:45:44;8.07;;;1.15;;
47103;SDS011;32853;52.164;5.400;2023-03-24T15:48:19;8.93;;;1.03;;
47103;SDS011;32853;52.164;5.400;2023-03-24T15:53:55;5.40;;;1.00;;
47103;SDS011;32853;52.164;5.400;2023-03-24T15:56:26;9.02;;;0.88;;
47103;SDS011;32853;52.164;5.400;2023-03-24T16:01:43;10.30;;;1.15;;
47103;SDS011;32853;52.164;5.400;2023-03-24T16:04:34;12.38;;;1.25;;
47103;SDS011;32853;52.164;5.400;2023-03-24T16:07:01;9.97;;;1.17;;
47103;SDS011;32853;52.164;5.400;2023-03-24T16:09:33;9.57;;;1.10;;
47103;SDS011;32853;52.164;5.400;2023-03-24T16:12:02;14.35;;;1.38;;
47103;SDS011;32853;52.164;5.400;2023-03-24T16:14:41;12.75;;;1.30;;
47103;SDS011;32853;52.164;5.400;2023-03-24T16:19:40;5.90;;;1.02;;
47103;SDS011;32853;52.164;5.400;2023-03-24T16:22:09;16.77;;;1.40;;
47103;SDS011;32853;52.164;5.400;2023-03-24T16:24:35;9.32;;;1.05;;
47103;SDS011;32853;52.164;5.400;2023-03-24T16:27:01;13.57;;;1.40;;
47103;SDS011;32853;52.164;5.400;2023-03-24T16:29:26;8.85;;;1.38;;
47103;SDS011;32853;52.164;5.400;2023-03-24T16:31:52;6.32;;;0.90;;
47103;SDS011;32853;52.164;5.400;2023-03-24T16:34:20;8.15;;;1.33;;
47103;SDS011;32853;52.164;5.400;2023-03-24T16:36:50;13.75;;;1.33;;
47103;SDS011;32853;52.164;5.400;2023-03-24T16:39:17;6.75;;;1.10;;
47103;SDS011;32853;52.164;5.400;2023-03-24T16:41:47;10.82;;;1.58;;
47103;SDS011;32853;52.164;5.400;2023-03-24T16:44:13;9.25;;;1.08;;
47103;SDS011;32853;52.164;5.400;2023-03-24T16:46:40;15.50;;;1.40;;
47103;SDS011;32853;52.164;5.400;2023-03-24T16:49:07;11.93;;;1.58;;
47103;SDS011;32853;52.164;5.400;2023-03-24T16:51:35;6.05;;;0.95;;
47103;SDS011;32853;52.164;5.400;2023-03-24T16:54:07;9.93;;;1.58;;
47103;SDS011;32853;52.164;5.400;2023-03-24T16:56:33;7.75;;;1.05;;
47103;SDS011;32853;52.164;5.400;2023-03-24T16:59:00;9.07;;;1.25;;
47103;SDS011;32853;52.164;5.400;2023-03-24T17:01:30;8.02;;;1.05;;
47103;SDS011;32853;52.164;5.400;2023-03-24T17:06:50;8.95;;;1.25;;
47103;SDS011;32853;52.164;5.400;2023-03-24T17:09:23;12.93;;;4.13;;
47103;SDS011;32853;52.164;5.400;2023-03-24T17:11:49;7.13;;;1.10;;
47103;SDS011;32853;52.164;5.400;2023-03-24T17:14:27;6.60;;;1.00;;
47103;SDS011;32853;52.164;5.400;2023-03-24T17:17:02;7.20;;;1.17;;
47103;SDS011;32853;52.164;5.400;2023-03-24T17:19:28;9.82;;;1.30;;
47103;SDS011;32853;52.164;5.400;2023-03-24T17:24:28;10.05;;;1.63;;
47103;SDS011;32853;52.164;5.400;2023-03-24T17:27:03;12.30;;;1.42;;
47103;SDS011;32853;52.164;5.400;2023-03-24T17:29:59;12.60;;;2.70;;
47103;SDS011;32853;52.164;5.400;2023-03-24T17:32:28;9.70;;;1.80;;
47103;SDS011;32853;52.164;5.400;2023-03-24T17:34:56;12.77;;;1.70;;
47103;SDS011;32853;52.164;5.400;2023-03-24T17:37:22;8.48;;;1.30;;
47103;SDS011;32853;52.164;5.400;2023-03-24T17:39:48;10.70;;;1.33;;
47103;SDS011;32853;52.164;5.400;2023-03-24T17:42:24;9.40;;;1.33;;
47103;SDS011;32853;52.164;5.400;2023-03-24T17:45:03;15.23;;;2.03;;
47103;SDS011;32853;52.164;5.400;2023-03-24T17:47:45;9.02;;;1.52;;
47103;SDS011;32853;52.164;5.400;2023-03-24T17:50:10;10.63;;;1.35;;
47103;SDS011;32853;52.164;5.400;2023-03-24T17:52:44;9.07;;;1.30;;
47103;SDS011;32853;52.164;5.400;2023-03-24T17:55:11;11.90;;;1.17;;
47103;SDS011;32853;52.164;5.400;2023-03-24T17:57:41;8.80;;;1.35;;
47103;SDS011;32853;52.164;5.400;2023-03-24T18:00:07;9.73;;;1.42;;
47103;SDS011;32853;52.164;5.400;2023-03-24T18:02:42;15.80;;;1.73;;
47103;SDS011;32853;52.164;5.400;2023-03-24T18:08:05;15.13;;;1.73;;
47103;SDS011;32853;52.164;5.400;2023-03-24T18:10:30;18.73;;;3.58;;
47103;SDS011;32853;52.164;5.400;2023-03-24T18:12:58;8.88;;;1.73;;
47103;SDS011;32853;52.164;5.400;2023-03-24T18:15:27;13.18;;;1.85;;
47103;SDS011;32853;52.164;5.400;2023-03-24T18:17:53;11.80;;;1.75;;
47103;SDS011;32853;52.164;5.400;2023-03-24T18:20:18;13.18;;;2.00;;
47103;SDS011;32853;52.164;5.400;2023-03-24T18:22:44;12.25;;;2.45;;
47103;SDS011;32853;52.164;5.400;2023-03-24T18:25:11;8.38;;;1.67;;
47103;SDS011;32853;52.164;5.400;2023-03-24T18:27:38;14.83;;;1.90;;
47103;SDS011;32853;52.164;5.400;2023-03-24T18:30:05;16.15;;;2.80;;
47103;SDS011;32853;52.164;5.400;2023-03-24T18:32:33;11.13;;;1.92;;
47103;SDS011;32853;52.164;5.400;2023-03-24T18:35:01;10.40;;;1.63;;
47103;SDS011;32853;52.164;5.400;2023-03-24T18:37:29;12.02;;;2.47;;
47103;SDS011;32853;52.164;5.400;2023-03-24T18:39:56;11.70;;;2.77;;
47103;SDS011;32853;52.164;5.400;2023-03-24T18:42:22;15.77;;;2.55;;
47103;SDS011;32853;52.164;5.400;2023-03-24T18:44:47;17.37;;;2.70;;
47103;SDS011;32853;52.164;5.400;2023-03-24T18:47:17;11.13;;;2.07;;
47103;SDS011;32853;52.164;5.400;2023-03-24T18:49:43;12.32;;;2.95;;
47103;SDS011;32853;52.164;5.400;2023-03-24T18:52:14;12.48;;;2.30;;
47103;SDS011;32853;52.164;5.400;2023-03-24T18:54:45;12.10;;;2.13;;
47103;SDS011;32853;52.164;5.400;2023-03-24T18:57:25;11.75;;;2.05;;
47103;SDS011;32853;52.164;5.400;2023-03-24T18:59:51;12.73;;;1.70;;
47103;SDS011;32853;52.164;5.400;2023-03-24T19:02:17;15.80;;;2.38;;
47103;SDS011;32853;52.164;5.400;2023-03-24T19:04:43;10.50;;;2.13;;
47103;SDS011;32853;52.164;5.400;2023-03-24T19:07:10;9.57;;;2.30;;
47103;SDS011;32853;52.164;5.400;2023-03-24T19:09:38;10.80;;;2.50;;
47103;SDS011;32853;52.164;5.400;2023-03-24T19:12:05;16.42;;;3.03;;
47103;SDS011;32853;52.164;5.400;2023-03-24T19:14:42;12.68;;;2.20;;
47103;SDS011;32853;52.164;5.400;2023-03-24T19:17:10;13.65;;;2.08;;
47103;SDS011;32853;52.164;5.400;2023-03-24T19:19:36;10.73;;;1.90;;
47103;SDS011;32853;52.164;5.400;2023-03-24T19:22:03;12.25;;;2.30;;